sensor_id;sensor_type;location;lat;lon;timestamp;temperature;humidity
11142;DHT22;5625;50.122;19.864;2024-01-30T00:00:35;0.10;99.90
11142;DHT22;5625;50.122;19.864;2024-01-30T00:03:04;0.10;99.90
11142;DHT22;5625;50.122;19.864;2024-01-30T00:05:32;0.10;99.90
11142;DHT22;5625;50.122;19.864;2024-01-30T00:08:01;0.10;99.90
11142;DHT22;5625;50.122;19.864;2024-01-30T00:10:29;0.00;99.90
11142;DHT22;5625;50.122;19.864;2024-01-30T00:12:57;0.10;99.90
11142;DHT22;5625;50.122;19.864;2024-01-30T00:15:25;0.00;99.90
11142;DHT22;5625;50.122;19.864;2024-01-30T00:17:55;0.00;99.90
11142;DHT22;5625;50.122;19.864;2024-01-30T00:20:24;0.00;99.90
11142;DHT22;5625;50.122;19.864;2024-01-30T00:22:52;0.00;99.90
11142;DHT22;5625;50.122;19.864;2024-01-30T00:25:20;0.00;99.90
11142;DHT22;5625;50.122;19.864;2024-01-30T00:27:48;0.00;99.90
11142;DHT22;5625;50.122;19.864;2024-01-30T00:30:16;-0.10;99.90
11142;DHT22;5625;50.122;19.864;2024-01-30T00:32:44;-0.10;99.90
11142;DHT22;5625;50.122;19.864;2024-01-30T00:35:14;-0.10;99.90
11142;DHT22;5625;50.122;19.864;2024-01-30T00:37:42;-0.10;99.90
11142;DHT22;5625;50.122;19.864;2024-01-30T00:40:11;-0.10;99.90
11142;DHT22;5625;50.122;19.864;2024-01-30T00:42:43;-0.10;99.90
11142;DHT22;5625;50.122;19.864;2024-01-30T00:45:14;-0.10;99.90
11142;DHT22;5625;50.122;19.864;2024-01-30T00:47:43;-0.10;99.90
11142;DHT22;5625;50.122;19.864;2024-01-30T00:50:12;-0.10;99.90
11142;DHT22;5625;50.122;19.864;2024-01-30T00:52:41;-0.20;99.90
11142;DHT22;5625;50.122;19.864;2024-01-30T00:55:12;-0.20;99.90
11142;DHT22;5625;50.122;19.864;2024-01-30T00:57:41;-0.20;99.90
11142;DHT22;5625;50.122;19.864;2024-01-30T01:00:13;-0.20;99.90
11142;DHT22;5625;50.122;19.864;2024-01-30T01:02:43;-0.20;99.90
11142;DHT22;5625;50.122;19.864;2024-01-30T01:05:12;-0.20;99.90
11142;DHT22;5625;50.122;19.864;2024-01-30T01:07:41;-0.20;99.90
11142;DHT22;5625;50.122;19.864;2024-01-30T01:10:10;-0.20;99.90
11142;DHT22;5625;50.122;19.864;2024-01-30T01:12:40;-0.30;99.90
11142;DHT22;5625;50.122;19.864;2024-01-30T01:15:09;-0.30;99.90
11142;DHT22;5625;50.122;19.864;2024-01-30T01:17:38;-0.30;99.90
11142;DHT22;5625;50.122;19.864;2024-01-30T01:20:08;-0.30;99.90
11142;DHT22;5625;50.122;19.864;2024-01-30T01:22:38;-0.30;99.90
11142;DHT22;5625;50.122;19.864;2024-01-30T01:25:08;-0.30;99.90
11142;DHT22;5625;50.122;19.864;2024-01-30T01:27:37;-0.30;99.90
11142;DHT22;5625;50.122;19.864;2024-01-30T01:30:10;-0.40;99.90
11142;DHT22;5625;50.122;19.864;2024-01-30T01:32:41;-0.40;99.90
11142;DHT22;5625;50.122;19.864;2024-01-30T01:35:16;-0.40;99.90
11142;DHT22;5625;50.122;19.864;2024-01-30T01:37:47;-0.40;99.90
11142;DHT22;5625;50.122;19.864;2024-01-30T01:40:23;-0.40;99.90
11142;DHT22;5625;50.122;19.864;2024-01-30T01:42:53;-0.40;99.90
11142;DHT22;5625;50.122;19.864;2024-01-30T01:45:22;-0.40;99.90
11142;DHT22;5625;50.122;19.864;2024-01-30T01:47:51;-0.40;99.90
11142;DHT22;5625;50.122;19.864;2024-01-30T01:50:21;-0.40;99.90
11142;DHT22;5625;50.122;19.864;2024-01-30T01:52:52;-0.50;99.90
11142;DHT22;5625;50.122;19.864;2024-01-30T01:55:23;-0.50;99.90
11142;DHT22;5625;50.122;19.864;2024-01-30T01:57:53;-0.50;99.90
11142;DHT22;5625;50.122;19.864;2024-01-30T02:00:22;-0.50;99.90
11142;DHT22;5625;50.122;19.864;2024-01-30T02:02:52;-0.50;99.90
11142;DHT22;5625;50.122;19.864;2024-01-30T02:05:21;-0.50;99.90
11142;DHT22;5625;50.122;19.864;2024-01-30T02:07:52;-0.50;99.90
11142;DHT22;5625;50.122;19.864;2024-01-30T02:10:20;-0.50;99.90
11142;DHT22;5625;50.122;19.864;2024-01-30T02:12:50;-0.50;99.90
11142;DHT22;5625;50.122;19.864;2024-01-30T02:15:18;-0.50;99.90
11142;DHT22;5625;50.122;19.864;2024-01-30T02:17:47;-0.60;99.90
11142;DHT22;5625;50.122;19.864;2024-01-30T02:20:15;-0.60;99.90
11142;DHT22;5625;50.122;19.864;2024-01-30T02:22:45;-0.50;99.90
11142;DHT22;5625;50.122;19.864;2024-01-30T02:25:14;-0.50;99.90
11142;DHT22;5625;50.122;19.864;2024-01-30T02:27:42;-0.60;99.90
11142;DHT22;5625;50.122;19.864;2024-01-30T02:30:11;-0.60;99.90
11142;DHT22;5625;50.122;19.864;2024-01-30T02:32:40;-0.60;99.90
11142;DHT22;5625;50.122;19.864;2024-01-30T02:35:08;-0.60;99.90
11142;DHT22;5625;50.122;19.864;2024-01-30T02:37:36;-0.60;99.90
11142;DHT22;5625;50.122;19.864;2024-01-30T02:40:07;-0.60;99.90
11142;DHT22;5625;50.122;19.864;2024-01-30T02:42:35;-0.70;99.90
11142;DHT22;5625;50.122;19.864;2024-01-30T02:45:04;-0.70;99.90
11142;DHT22;5625;50.122;19.864;2024-01-30T02:47:33;-0.70;99.90
11142;DHT22;5625;50.122;19.864;2024-01-30T02:50:01;-0.70;99.90
11142;DHT22;5625;50.122;19.864;2024-01-30T02:52:29;-0.70;99.90
11142;DHT22;5625;50.122;19.864;2024-01-30T02:54:57;-0.70;99.90
11142;DHT22;5625;50.122;19.864;2024-01-30T02:57:28;-0.70;99.90
11142;DHT22;5625;50.122;19.864;2024-01-30T02:59:56;-0.70;99.90
11142;DHT22;5625;50.122;19.864;2024-01-30T03:02:24;-0.80;99.90
11142;DHT22;5625;50.122;19.864;2024-01-30T03:04:52;-0.80;99.90
11142;DHT22;5625;50.122;19.864;2024-01-30T03:07:21;-0.80;99.90
11142;DHT22;5625;50.122;19.864;2024-01-30T03:09:49;-0.80;99.90
11142;DHT22;5625;50.122;19.864;2024-01-30T03:12:17;-0.80;99.90
11142;DHT22;5625;50.122;19.864;2024-01-30T03:14:47;-0.80;99.90
11142;DHT22;5625;50.122;19.864;2024-01-30T03:17:16;-0.80;99.90
11142;DHT22;5625;50.122;19.864;2024-01-30T03:19:44;-0.80;99.90
11142;DHT22;5625;50.122;19.864;2024-01-30T03:22:13;-0.80;99.90
11142;DHT22;5625;50.122;19.864;2024-01-30T03:24:41;-0.80;99.90
11142;DHT22;5625;50.122;19.864;2024-01-30T03:27:09;-0.90;99.90
11142;DHT22;5625;50.122;19.864;2024-01-30T03:29:37;-0.90;99.90
11142;DHT22;5625;50.122;19.864;2024-01-30T03:32:07;-0.90;99.90
11142;DHT22;5625;50.122;19.864;2024-01-30T03:34:35;-0.90;99.90
11142;DHT22;5625;50.122;19.864;2024-01-30T03:37:03;-0.90;99.90
11142;DHT22;5625;50.122;19.864;2024-01-30T03:39:32;-0.90;99.90
11142;DHT22;5625;50.122;19.864;2024-01-30T03:42:00;-0.90;99.90
11142;DHT22;5625;50.122;19.864;2024-01-30T03:44:28;-1.00;99.90
11142;DHT22;5625;50.122;19.864;2024-01-30T03:46:56;-1.00;99.90
11142;DHT22;5625;50.122;19.864;2024-01-30T03:49:26;-1.00;99.90
11142;DHT22;5625;50.122;19.864;2024-01-30T03:51:54;-1.00;99.90
11142;DHT22;5625;50.122;19.864;2024-01-30T03:54:22;-1.00;99.90
11142;DHT22;5625;50.122;19.864;2024-01-30T03:56:50;-1.00;99.90
11142;DHT22;5625;50.122;19.864;2024-01-30T03:59:19;-1.00;99.90
11142;DHT22;5625;50.122;19.864;2024-01-30T04:01:56;-1.00;99.90
11142;DHT22;5625;50.122;19.864;2024-01-30T04:04:26;-1.10;99.90
11142;DHT22;5625;50.122;19.864;2024-01-30T04:06:54;-1.10;99.90
11142;DHT22;5625;50.122;19.864;2024-01-30T04:09:22;-1.10;99.90
11142;DHT22;5625;50.122;19.864;2024-01-30T04:11:50;-1.10;99.90
11142;DHT22;5625;50.122;19.864;2024-01-30T04:14:18;-1.20;99.90
11142;DHT22;5625;50.122;19.864;2024-01-30T04:16:47;-1.20;99.90
11142;DHT22;5625;50.122;19.864;2024-01-30T04:19:17;-1.20;99.90
11142;DHT22;5625;50.122;19.864;2024-01-30T04:21:46;-1.20;99.90
11142;DHT22;5625;50.122;19.864;2024-01-30T04:24:15;-1.20;99.90
11142;DHT22;5625;50.122;19.864;2024-01-30T04:26:45;-1.20;99.90
11142;DHT22;5625;50.122;19.864;2024-01-30T04:29:16;-1.20;99.90
11142;DHT22;5625;50.122;19.864;2024-01-30T04:31:44;-1.30;99.90
11142;DHT22;5625;50.122;19.864;2024-01-30T04:34:12;-1.30;99.90
11142;DHT22;5625;50.122;19.864;2024-01-30T04:36:44;-1.30;99.90
11142;DHT22;5625;50.122;19.864;2024-01-30T04:39:14;-1.30;99.90
11142;DHT22;5625;50.122;19.864;2024-01-30T04:41:43;-1.30;99.90
11142;DHT22;5625;50.122;19.864;2024-01-30T04:44:11;-1.30;99.90
11142;DHT22;5625;50.122;19.864;2024-01-30T04:46:39;-1.30;99.90
11142;DHT22;5625;50.122;19.864;2024-01-30T04:49:07;-1.30;99.90
11142;DHT22;5625;50.122;19.864;2024-01-30T04:51:35;-1.30;99.90
11142;DHT22;5625;50.122;19.864;2024-01-30T04:54:04;-1.30;99.90
11142;DHT22;5625;50.122;19.864;2024-01-30T04:56:34;-1.40;99.90
11142;DHT22;5625;50.122;19.864;2024-01-30T04:59:02;-1.40;99.90
11142;DHT22;5625;50.122;19.864;2024-01-30T05:01:31;-1.40;99.90
11142;DHT22;5625;50.122;19.864;2024-01-30T05:03:59;-1.40;99.90
11142;DHT22;5625;50.122;19.864;2024-01-30T05:06:28;-1.40;99.90
11142;DHT22;5625;50.122;19.864;2024-01-30T05:08:56;-1.30;99.90
11142;DHT22;5625;50.122;19.864;2024-01-30T05:11:25;-1.40;99.90
11142;DHT22;5625;50.122;19.864;2024-01-30T05:13:54;-1.40;99.90
11142;DHT22;5625;50.122;19.864;2024-01-30T05:16:22;-1.40;99.90
11142;DHT22;5625;50.122;19.864;2024-01-30T05:18:50;-1.40;99.90
11142;DHT22;5625;50.122;19.864;2024-01-30T05:21:19;-1.40;99.90
11142;DHT22;5625;50.122;19.864;2024-01-30T05:23:47;-1.40;99.90
11142;DHT22;5625;50.122;19.864;2024-01-30T05:26:16;-1.40;99.90
11142;DHT22;5625;50.122;19.864;2024-01-30T05:28:44;-1.40;99.90
11142;DHT22;5625;50.122;19.864;2024-01-30T05:31:14;-1.50;99.90
11142;DHT22;5625;50.122;19.864;2024-01-30T05:33:42;-1.40;99.90
11142;DHT22;5625;50.122;19.864;2024-01-30T05:36:12;-1.50;99.90
11142;DHT22;5625;50.122;19.864;2024-01-30T05:38:40;-1.50;99.90
11142;DHT22;5625;50.122;19.864;2024-01-30T05:41:09;-1.50;99.90
11142;DHT22;5625;50.122;19.864;2024-01-30T05:43:37;-1.50;99.90
11142;DHT22;5625;50.122;19.864;2024-01-30T05:46:06;-1.50;99.90
11142;DHT22;5625;50.122;19.864;2024-01-30T05:48:36;-1.50;99.90
11142;DHT22;5625;50.122;19.864;2024-01-30T05:51:04;-1.50;99.90
11142;DHT22;5625;50.122;19.864;2024-01-30T05:53:33;-1.50;99.90
11142;DHT22;5625;50.122;19.864;2024-01-30T05:56:02;-1.50;99.90
11142;DHT22;5625;50.122;19.864;2024-01-30T05:58:30;-1.50;99.90
11142;DHT22;5625;50.122;19.864;2024-01-30T06:00:59;-1.50;99.90
11142;DHT22;5625;50.122;19.864;2024-01-30T06:03:27;-1.50;99.90
11142;DHT22;5625;50.122;19.864;2024-01-30T06:05:57;-1.60;99.90
11142;DHT22;5625;50.122;19.864;2024-01-30T06:08:25;-1.50;99.90
11142;DHT22;5625;50.122;19.864;2024-01-30T06:10:53;-1.60;99.90
11142;DHT22;5625;50.122;19.864;2024-01-30T06:13:24;-1.60;99.90
11142;DHT22;5625;50.122;19.864;2024-01-30T06:15:52;-1.60;99.90
11142;DHT22;5625;50.122;19.864;2024-01-30T06:18:20;-1.60;99.90
11142;DHT22;5625;50.122;19.864;2024-01-30T06:20:48;-1.60;99.90
11142;DHT22;5625;50.122;19.864;2024-01-30T06:23:18;-1.60;99.90
11142;DHT22;5625;50.122;19.864;2024-01-30T06:25:46;-1.60;99.90
11142;DHT22;5625;50.122;19.864;2024-01-30T06:28:14;-1.60;99.90
11142;DHT22;5625;50.122;19.864;2024-01-30T06:30:43;-1.60;99.90
11142;DHT22;5625;50.122;19.864;2024-01-30T06:33:12;-1.60;99.90
11142;DHT22;5625;50.122;19.864;2024-01-30T06:35:41;-1.60;99.90
11142;DHT22;5625;50.122;19.864;2024-01-30T06:38:11;-1.60;99.90
11142;DHT22;5625;50.122;19.864;2024-01-30T06:40:41;-1.60;99.90
11142;DHT22;5625;50.122;19.864;2024-01-30T06:43:10;-1.60;99.90
11142;DHT22;5625;50.122;19.864;2024-01-30T06:45:38;-1.60;99.90
11142;DHT22;5625;50.122;19.864;2024-01-30T06:48:08;-1.60;99.90
11142;DHT22;5625;50.122;19.864;2024-01-30T06:50:36;-1.60;99.90
11142;DHT22;5625;50.122;19.864;2024-01-30T06:53:04;-1.60;99.90
11142;DHT22;5625;50.122;19.864;2024-01-30T06:55:32;-1.60;99.90
11142;DHT22;5625;50.122;19.864;2024-01-30T06:58:02;-1.60;99.90
11142;DHT22;5625;50.122;19.864;2024-01-30T07:00:31;-1.60;99.90
11142;DHT22;5625;50.122;19.864;2024-01-30T07:02:59;-1.60;99.90
11142;DHT22;5625;50.122;19.864;2024-01-30T07:05:27;-1.60;99.90
11142;DHT22;5625;50.122;19.864;2024-01-30T07:07:56;-1.60;99.90
11142;DHT22;5625;50.122;19.864;2024-01-30T07:10:25;-1.60;99.90
11142;DHT22;5625;50.122;19.864;2024-01-30T07:12:53;-1.60;99.90
11142;DHT22;5625;50.122;19.864;2024-01-30T07:15:23;-1.50;99.90
11142;DHT22;5625;50.122;19.864;2024-01-30T07:17:54;-1.50;99.90
11142;DHT22;5625;50.122;19.864;2024-01-30T07:20:24;-1.50;99.90
11142;DHT22;5625;50.122;19.864;2024-01-30T07:22:52;-1.50;99.90
11142;DHT22;5625;50.122;19.864;2024-01-30T07:25:20;-1.50;99.90
11142;DHT22;5625;50.122;19.864;2024-01-30T07:27:48;-1.50;99.90
11142;DHT22;5625;50.122;19.864;2024-01-30T07:30:17;-1.40;99.90
11142;DHT22;5625;50.122;19.864;2024-01-30T07:32:47;-1.40;99.90
11142;DHT22;5625;50.122;19.864;2024-01-30T07:35:15;-1.40;99.90
11142;DHT22;5625;50.122;19.864;2024-01-30T07:37:43;-1.40;99.90
11142;DHT22;5625;50.122;19.864;2024-01-30T07:40:12;-1.30;99.90
11142;DHT22;5625;50.122;19.864;2024-01-30T07:42:40;-1.30;99.90
11142;DHT22;5625;50.122;19.864;2024-01-30T07:45:09;-1.30;99.90
11142;DHT22;5625;50.122;19.864;2024-01-30T07:47:37;-1.30;99.90
11142;DHT22;5625;50.122;19.864;2024-01-30T07:50:08;-1.20;99.90
11142;DHT22;5625;50.122;19.864;2024-01-30T07:52:37;-1.20;99.90
11142;DHT22;5625;50.122;19.864;2024-01-30T07:55:06;-1.00;99.90
11142;DHT22;5625;50.122;19.864;2024-01-30T07:57:35;0.00;99.90
11142;DHT22;5625;50.122;19.864;2024-01-30T08:00:04;1.20;64.40
11142;DHT22;5625;50.122;19.864;2024-01-30T08:02:34;2.30;99.90
11142;DHT22;5625;50.122;19.864;2024-01-30T08:05:02;3.00;99.90
11142;DHT22;5625;50.122;19.864;2024-01-30T08:07:32;3.60;99.90
11142;DHT22;5625;50.122;19.864;2024-01-30T08:10:00;4.10;1.00
11142;DHT22;5625;50.122;19.864;2024-01-30T08:12:29;4.70;4.80
11142;DHT22;5625;50.122;19.864;2024-01-30T08:14:57;5.10;99.90
11142;DHT22;5625;50.122;19.864;2024-01-30T08:17:25;5.60;99.90
11142;DHT22;5625;50.122;19.864;2024-01-30T08:19:53;5.90;99.90
11142;DHT22;5625;50.122;19.864;2024-01-30T08:22:22;6.30;1.00
11142;DHT22;5625;50.122;19.864;2024-01-30T08:24:52;6.70;99.90
11142;DHT22;5625;50.122;19.864;2024-01-30T08:27:20;7.10;1.00
11142;DHT22;5625;50.122;19.864;2024-01-30T08:29:48;7.50;1.00
11142;DHT22;5625;50.122;19.864;2024-01-30T08:32:17;7.80;99.90
11142;DHT22;5625;50.122;19.864;2024-01-30T08:34:45;8.20;99.90
11142;DHT22;5625;50.122;19.864;2024-01-30T08:37:14;8.40;29.60
11142;DHT22;5625;50.122;19.864;2024-01-30T08:39:43;8.70;1.00
11142;DHT22;5625;50.122;19.864;2024-01-30T08:42:13;8.90;1.00
11142;DHT22;5625;50.122;19.864;2024-01-30T08:44:41;9.20;1.00
11142;DHT22;5625;50.122;19.864;2024-01-30T08:47:09;9.50;99.90
11142;DHT22;5625;50.122;19.864;2024-01-30T08:49:37;9.80;99.90
11142;DHT22;5625;50.122;19.864;2024-01-30T08:52:12;10.00;99.90
11142;DHT22;5625;50.122;19.864;2024-01-30T08:54:40;10.30;99.90
11142;DHT22;5625;50.122;19.864;2024-01-30T08:57:08;10.60;99.90
11142;DHT22;5625;50.122;19.864;2024-01-30T08:59:38;10.80;99.90
11142;DHT22;5625;50.122;19.864;2024-01-30T09:02:06;11.00;99.90
11142;DHT22;5625;50.122;19.864;2024-01-30T09:04:40;11.20;99.90
11142;DHT22;5625;50.122;19.864;2024-01-30T09:07:09;11.40;99.90
11142;DHT22;5625;50.122;19.864;2024-01-30T09:09:38;11.60;99.90
11142;DHT22;5625;50.122;19.864;2024-01-30T09:12:07;11.80;99.90
11142;DHT22;5625;50.122;19.864;2024-01-30T09:14:39;12.00;99.90
11142;DHT22;5625;50.122;19.864;2024-01-30T09:17:08;12.10;97.70
11142;DHT22;5625;50.122;19.864;2024-01-30T09:19:36;12.30;88.00
11142;DHT22;5625;50.122;19.864;2024-01-30T09:22:05;12.40;73.20
11142;DHT22;5625;50.122;19.864;2024-01-30T09:24:33;12.50;60.50
11142;DHT22;5625;50.122;19.864;2024-01-30T09:27:02;12.70;40.00
11142;DHT22;5625;50.122;19.864;2024-01-30T09:29:30;12.90;24.30
11142;DHT22;5625;50.122;19.864;2024-01-30T09:32:01;13.00;14.90
11142;DHT22;5625;50.122;19.864;2024-01-30T09:34:29;13.20;2.30
11142;DHT22;5625;50.122;19.864;2024-01-30T09:36:58;13.40;1.00
11142;DHT22;5625;50.122;19.864;2024-01-30T09:39:27;13.50;1.00
11142;DHT22;5625;50.122;19.864;2024-01-30T09:42:00;13.60;1.00
11142;DHT22;5625;50.122;19.864;2024-01-30T09:44:31;13.70;1.00
11142;DHT22;5625;50.122;19.864;2024-01-30T09:47:00;13.90;1.00
11142;DHT22;5625;50.122;19.864;2024-01-30T09:49:32;14.10;1.00
11142;DHT22;5625;50.122;19.864;2024-01-30T09:52:01;14.20;1.00
11142;DHT22;5625;50.122;19.864;2024-01-30T09:54:30;14.30;1.00
11142;DHT22;5625;50.122;19.864;2024-01-30T09:57:03;14.40;1.00
11142;DHT22;5625;50.122;19.864;2024-01-30T09:59:31;14.50;1.00
11142;DHT22;5625;50.122;19.864;2024-01-30T10:02:01;14.70;1.00
11142;DHT22;5625;50.122;19.864;2024-01-30T10:04:31;14.70;1.00
11142;DHT22;5625;50.122;19.864;2024-01-30T10:07:01;14.60;1.00
11142;DHT22;5625;50.122;19.864;2024-01-30T10:09:32;14.70;1.00
11142;DHT22;5625;50.122;19.864;2024-01-30T10:12:01;14.90;1.00
11142;DHT22;5625;50.122;19.864;2024-01-30T10:14:30;15.00;1.00
11142;DHT22;5625;50.122;19.864;2024-01-30T10:16:58;15.20;1.00
11142;DHT22;5625;50.122;19.864;2024-01-30T10:19:28;15.30;1.00
11142;DHT22;5625;50.122;19.864;2024-01-30T10:21:56;15.30;1.00
11142;DHT22;5625;50.122;19.864;2024-01-30T10:24:25;15.40;1.00
11142;DHT22;5625;50.122;19.864;2024-01-30T10:26:53;15.40;1.00
11142;DHT22;5625;50.122;19.864;2024-01-30T10:29:24;15.20;1.00
11142;DHT22;5625;50.122;19.864;2024-01-30T10:31:59;14.90;1.00
11142;DHT22;5625;50.122;19.864;2024-01-30T10:34:29;14.60;1.00
11142;DHT22;5625;50.122;19.864;2024-01-30T10:37:05;14.20;1.00
11142;DHT22;5625;50.122;19.864;2024-01-30T10:39:39;13.80;1.00
11142;DHT22;5625;50.122;19.864;2024-01-30T10:42:12;13.40;1.00
11142;DHT22;5625;50.122;19.864;2024-01-30T10:44:47;13.00;1.00
11142;DHT22;5625;50.122;19.864;2024-01-30T10:47:21;12.70;1.00
11142;DHT22;5625;50.122;19.864;2024-01-30T10:49:52;12.40;1.00
11142;DHT22;5625;50.122;19.864;2024-01-30T10:52:21;12.00;1.00
11142;DHT22;5625;50.122;19.864;2024-01-30T10:54:51;11.70;1.00
11142;DHT22;5625;50.122;19.864;2024-01-30T10:57:22;11.40;1.00
11142;DHT22;5625;50.122;19.864;2024-01-30T10:59:52;11.10;1.00
11142;DHT22;5625;50.122;19.864;2024-01-30T11:02:22;10.90;1.00
11142;DHT22;5625;50.122;19.864;2024-01-30T11:04:58;10.70;1.00
11142;DHT22;5625;50.122;19.864;2024-01-30T11:07:30;10.40;1.00
11142;DHT22;5625;50.122;19.864;2024-01-30T11:10:03;10.20;1.00
11142;DHT22;5625;50.122;19.864;2024-01-30T11:12:33;10.00;1.00
11142;DHT22;5625;50.122;19.864;2024-01-30T11:15:02;9.80;1.00
11142;DHT22;5625;50.122;19.864;2024-01-30T11:17:42;9.70;1.00
11142;DHT22;5625;50.122;19.864;2024-01-30T11:20:14;9.50;1.00
11142;DHT22;5625;50.122;19.864;2024-01-30T11:22:45;9.30;1.00
11142;DHT22;5625;50.122;19.864;2024-01-30T11:25:17;9.20;1.00
11142;DHT22;5625;50.122;19.864;2024-01-30T11:27:46;9.10;1.00
11142;DHT22;5625;50.122;19.864;2024-01-30T11:30:22;9.00;1.00
11142;DHT22;5625;50.122;19.864;2024-01-30T11:33:04;8.90;1.00
11142;DHT22;5625;50.122;19.864;2024-01-30T11:35:37;8.80;15.70
11142;DHT22;5625;50.122;19.864;2024-01-30T11:38:07;8.70;36.00
11142;DHT22;5625;50.122;19.864;2024-01-30T11:40:37;8.60;65.80
11142;DHT22;5625;50.122;19.864;2024-01-30T11:43:07;8.50;92.20
11142;DHT22;5625;50.122;19.864;2024-01-30T11:45:36;8.40;99.90
11142;DHT22;5625;50.122;19.864;2024-01-30T11:48:07;8.30;99.90
11142;DHT22;5625;50.122;19.864;2024-01-30T11:50:39;8.30;99.90
11142;DHT22;5625;50.122;19.864;2024-01-30T11:53:09;8.20;99.90
11142;DHT22;5625;50.122;19.864;2024-01-30T11:55:37;8.10;99.90
11142;DHT22;5625;50.122;19.864;2024-01-30T11:58:06;8.00;99.90
11142;DHT22;5625;50.122;19.864;2024-01-30T12:00:34;8.00;99.90
11142;DHT22;5625;50.122;19.864;2024-01-30T12:03:03;8.00;99.90
11142;DHT22;5625;50.122;19.864;2024-01-30T12:05:34;7.90;99.90
11142;DHT22;5625;50.122;19.864;2024-01-30T12:08:05;7.90;99.90
11142;DHT22;5625;50.122;19.864;2024-01-30T12:10:34;7.80;99.90
11142;DHT22;5625;50.122;19.864;2024-01-30T12:13:02;7.80;99.90
11142;DHT22;5625;50.122;19.864;2024-01-30T12:15:31;7.70;99.90
11142;DHT22;5625;50.122;19.864;2024-01-30T12:18:07;7.70;99.90
11142;DHT22;5625;50.122;19.864;2024-01-30T12:20:35;7.70;99.90
11142;DHT22;5625;50.122;19.864;2024-01-30T12:23:05;7.60;99.90
11142;DHT22;5625;50.122;19.864;2024-01-30T12:25:33;7.60;99.90
11142;DHT22;5625;50.122;19.864;2024-01-30T12:28:02;7.60;99.90
11142;DHT22;5625;50.122;19.864;2024-01-30T12:30:31;7.50;99.90
11142;DHT22;5625;50.122;19.864;2024-01-30T12:33:00;7.50;99.90
11142;DHT22;5625;50.122;19.864;2024-01-30T12:35:28;7.50;99.90
11142;DHT22;5625;50.122;19.864;2024-01-30T12:37:59;7.40;99.90
11142;DHT22;5625;50.122;19.864;2024-01-30T12:40:29;7.40;99.90
11142;DHT22;5625;50.122;19.864;2024-01-30T12:42:57;7.40;1.00
11142;DHT22;5625;50.122;19.864;2024-01-30T12:45:26;7.40;1.00
11142;DHT22;5625;50.122;19.864;2024-01-30T12:47:56;7.30;1.00
11142;DHT22;5625;50.122;19.864;2024-01-30T12:50:26;7.30;1.00
11142;DHT22;5625;50.122;19.864;2024-01-30T12:52:54;7.30;9.40
11142;DHT22;5625;50.122;19.864;2024-01-30T12:55:23;7.30;1.00
11142;DHT22;5625;50.122;19.864;2024-01-30T12:57:53;7.20;15.90
11142;DHT22;5625;50.122;19.864;2024-01-30T13:00:21;7.20;21.60
11142;DHT22;5625;50.122;19.864;2024-01-30T13:02:50;7.20;1.00
11142;DHT22;5625;50.122;19.864;2024-01-30T13:05:18;7.20;1.00
11142;DHT22;5625;50.122;19.864;2024-01-30T13:07:47;7.20;1.00
11142;DHT22;5625;50.122;19.864;2024-01-30T13:10:15;7.20;1.00
11142;DHT22;5625;50.122;19.864;2024-01-30T13:12:45;7.20;1.00
11142;DHT22;5625;50.122;19.864;2024-01-30T13:15:14;7.20;1.00
11142;DHT22;5625;50.122;19.864;2024-01-30T13:17:42;7.20;1.00
11142;DHT22;5625;50.122;19.864;2024-01-30T13:20:12;7.20;1.00
11142;DHT22;5625;50.122;19.864;2024-01-30T13:22:50;7.20;1.00
11142;DHT22;5625;50.122;19.864;2024-01-30T13:25:20;7.10;4.10
11142;DHT22;5625;50.122;19.864;2024-01-30T13:27:48;7.10;30.50
11142;DHT22;5625;50.122;19.864;2024-01-30T13:30:18;7.10;79.20
11142;DHT22;5625;50.122;19.864;2024-01-30T13:32:46;7.10;99.90
11142;DHT22;5625;50.122;19.864;2024-01-30T13:35:14;7.10;81.50
11142;DHT22;5625;50.122;19.864;2024-01-30T13:37:43;7.10;1.00
11142;DHT22;5625;50.122;19.864;2024-01-30T13:40:14;7.10;1.00
11142;DHT22;5625;50.122;19.864;2024-01-30T13:42:43;7.00;1.00
11142;DHT22;5625;50.122;19.864;2024-01-30T13:45:12;7.00;1.00
11142;DHT22;5625;50.122;19.864;2024-01-30T13:47:41;6.90;1.00
11142;DHT22;5625;50.122;19.864;2024-01-30T13:50:10;7.00;1.00
11142;DHT22;5625;50.122;19.864;2024-01-30T13:52:42;7.00;99.90
11142;DHT22;5625;50.122;19.864;2024-01-30T13:55:12;7.00;99.90
11142;DHT22;5625;50.122;19.864;2024-01-30T13:57:40;7.00;99.90
11142;DHT22;5625;50.122;19.864;2024-01-30T14:00:10;7.00;99.90
11142;DHT22;5625;50.122;19.864;2024-01-30T14:02:44;7.00;99.90
11142;DHT22;5625;50.122;19.864;2024-01-30T14:05:16;7.00;99.90
11142;DHT22;5625;50.122;19.864;2024-01-30T14:07:48;7.00;99.90
11142;DHT22;5625;50.122;19.864;2024-01-30T14:10:16;6.90;99.90
11142;DHT22;5625;50.122;19.864;2024-01-30T14:12:45;6.90;99.90
11142;DHT22;5625;50.122;19.864;2024-01-30T14:15:15;6.90;99.90
11142;DHT22;5625;50.122;19.864;2024-01-30T14:17:56;6.90;99.90
11142;DHT22;5625;50.122;19.864;2024-01-30T14:20:25;6.80;99.90
11142;DHT22;5625;50.122;19.864;2024-01-30T14:22:54;6.80;99.90
11142;DHT22;5625;50.122;19.864;2024-01-30T14:25:23;6.80;99.90
11142;DHT22;5625;50.122;19.864;2024-01-30T14:27:52;6.80;99.90
11142;DHT22;5625;50.122;19.864;2024-01-30T14:30:21;6.70;99.90
11142;DHT22;5625;50.122;19.864;2024-01-30T14:32:50;6.70;1.00
11142;DHT22;5625;50.122;19.864;2024-01-30T14:35:19;6.70;1.00
11142;DHT22;5625;50.122;19.864;2024-01-30T14:37:48;6.60;1.00
11142;DHT22;5625;50.122;19.864;2024-01-30T14:40:17;6.60;1.00
11142;DHT22;5625;50.122;19.864;2024-01-30T14:42:46;6.50;1.00
11142;DHT22;5625;50.122;19.864;2024-01-30T14:45:14;6.50;1.00
11142;DHT22;5625;50.122;19.864;2024-01-30T14:47:43;6.50;1.00
11142;DHT22;5625;50.122;19.864;2024-01-30T14:50:11;6.50;99.90
11142;DHT22;5625;50.122;19.864;2024-01-30T14:52:41;6.40;99.90
11142;DHT22;5625;50.122;19.864;2024-01-30T14:55:09;6.40;99.90
11142;DHT22;5625;50.122;19.864;2024-01-30T14:57:38;6.40;99.90
11142;DHT22;5625;50.122;19.864;2024-01-30T15:00:09;6.30;99.90
11142;DHT22;5625;50.122;19.864;2024-01-30T15:02:38;6.30;99.90
11142;DHT22;5625;50.122;19.864;2024-01-30T15:05:06;6.20;1.00
11142;DHT22;5625;50.122;19.864;2024-01-30T15:07:35;6.20;1.00
11142;DHT22;5625;50.122;19.864;2024-01-30T15:10:10;6.10;1.00
11142;DHT22;5625;50.122;19.864;2024-01-30T15:12:39;6.10;1.00
11142;DHT22;5625;50.122;19.864;2024-01-30T15:15:07;6.00;1.00
11142;DHT22;5625;50.122;19.864;2024-01-30T15:17:38;6.00;1.00
11142;DHT22;5625;50.122;19.864;2024-01-30T15:20:07;5.90;1.00
11142;DHT22;5625;50.122;19.864;2024-01-30T15:22:36;5.90;1.00
11142;DHT22;5625;50.122;19.864;2024-01-30T15:25:09;5.80;18.00
11142;DHT22;5625;50.122;19.864;2024-01-30T15:27:37;5.70;76.60
11142;DHT22;5625;50.122;19.864;2024-01-30T15:30:06;5.70;92.90
11142;DHT22;5625;50.122;19.864;2024-01-30T15:32:34;5.70;99.90
11142;DHT22;5625;50.122;19.864;2024-01-30T15:35:03;5.60;99.90
11142;DHT22;5625;50.122;19.864;2024-01-30T15:37:32;5.60;99.90
11142;DHT22;5625;50.122;19.864;2024-01-30T15:40:01;5.50;99.90
11142;DHT22;5625;50.122;19.864;2024-01-30T15:42:34;5.40;99.90
11142;DHT22;5625;50.122;19.864;2024-01-30T15:45:03;5.30;1.00
11142;DHT22;5625;50.122;19.864;2024-01-30T15:47:32;5.30;1.00
11142;DHT22;5625;50.122;19.864;2024-01-30T15:50:02;5.20;23.00
11142;DHT22;5625;50.122;19.864;2024-01-30T15:52:30;5.20;99.90